sensor_id;sensor_type;location;lat;lon;timestamp;P1;durP1;ratioP1;P2;durP2;ratioP2
15595;SDS011;7898;48.658;9.068;2023-05-07T00:00:36;4.82;;;4.28;;
15595;SDS011;7898;48.658;9.068;2023-05-07T00:03:02;6.95;;;4.40;;
15595;SDS011;7898;48.658;9.068;2023-05-07T00:05:30;5.25;;;3.95;;
15595;SDS011;7898;48.658;9.068;2023-05-07T00:07:58;7.67;;;3.87;;
15595;SDS011;7898;48.658;9.068;2023-05-07T00:10:25;5.88;;;4.13;;
15595;SDS011;7898;48.658;9.068;2023-05-07T00:12:52;7.25;;;4.20;;
15595;SDS011;7898;48.658;9.068;2023-05-07T00:15:19;7.22;;;4.13;;
15595;SDS011;7898;48.658;9.068;2023-05-07T00:17:46;4.53;;;3.90;;
15595;SDS011;7898;48.658;9.068;2023-05-07T00:20:13;5.45;;;4.38;;
15595;SDS011;7898;48.658;9.068;2023-05-07T00:22:40;9.50;;;3.80;;
15595;SDS011;7898;48.658;9.068;2023-05-07T00:25:09;4.60;;;4.07;;
15595;SDS011;7898;48.658;9.068;2023-05-07T00:27:36;5.22;;;4.35;;
15595;SDS011;7898;48.658;9.068;2023-05-07T00:30:03;5.63;;;4.30;;
15595;SDS011;7898;48.658;9.068;2023-05-07T00:32:31;4.95;;;4.45;;
15595;SDS011;7898;48.658;9.068;2023-05-07T00:34:58;4.75;;;4.00;;
15595;SDS011;7898;48.658;9.068;2023-05-07T00:37:24;9.30;;;4.30;;
15595;SDS011;7898;48.658;9.068;2023-05-07T00:39:51;8.30;;;4.72;;
15595;SDS011;7898;48.658;9.068;2023-05-07T00:42:19;6.20;;;4.40;;
15595;SDS011;7898;48.658;9.068;2023-05-07T00:44:46;6.68;;;4.15;;
15595;SDS011;7898;48.658;9.068;2023-05-07T00:47:13;5.00;;;3.65;;
15595;SDS011;7898;48.658;9.068;2023-05-07T00:49:41;4.60;;;4.13;;
15595;SDS011;7898;48.658;9.068;2023-05-07T00:52:09;7.75;;;4.03;;
15595;SDS011;7898;48.658;9.068;2023-05-07T00:54:39;6.13;;;4.35;;
15595;SDS011;7898;48.658;9.068;2023-05-07T00:57:07;6.33;;;4.33;;
15595;SDS011;7898;48.658;9.068;2023-05-07T00:59:37;7.53;;;4.40;;
15595;SDS011;7898;48.658;9.068;2023-05-07T01:02:04;4.30;;;3.90;;
15595;SDS011;7898;48.658;9.068;2023-05-07T01:04:31;7.05;;;4.85;;
15595;SDS011;7898;48.658;9.068;2023-05-07T01:06:58;6.33;;;4.23;;
15595;SDS011;7898;48.658;9.068;2023-05-07T01:09:26;8.35;;;4.43;;
15595;SDS011;7898;48.658;9.068;2023-05-07T01:11:55;8.68;;;4.57;;
15595;SDS011;7898;48.658;9.068;2023-05-07T01:14:23;4.83;;;3.87;;
15595;SDS011;7898;48.658;9.068;2023-05-07T01:16:52;5.65;;;4.18;;
15595;SDS011;7898;48.658;9.068;2023-05-07T01:19:20;4.38;;;3.90;;
15595;SDS011;7898;48.658;9.068;2023-05-07T01:21:48;8.07;;;3.83;;
15595;SDS011;7898;48.658;9.068;2023-05-07T01:24:16;9.23;;;4.30;;
15595;SDS011;7898;48.658;9.068;2023-05-07T01:26:44;4.43;;;4.03;;
15595;SDS011;7898;48.658;9.068;2023-05-07T01:29:11;4.40;;;3.73;;
15595;SDS011;7898;48.658;9.068;2023-05-07T01:31:38;6.00;;;4.00;;
15595;SDS011;7898;48.658;9.068;2023-05-07T01:34:07;6.95;;;3.65;;
15595;SDS011;7898;48.658;9.068;2023-05-07T01:36:36;6.47;;;3.90;;
15595;SDS011;7898;48.658;9.068;2023-05-07T01:39:05;5.93;;;3.93;;
15595;SDS011;7898;48.658;9.068;2023-05-07T01:41:34;5.20;;;3.90;;
15595;SDS011;7898;48.658;9.068;2023-05-07T01:44:01;9.90;;;3.60;;
15595;SDS011;7898;48.658;9.068;2023-05-07T01:46:30;4.30;;;3.83;;
15595;SDS011;7898;48.658;9.068;2023-05-07T01:48:58;5.60;;;4.10;;
15595;SDS011;7898;48.658;9.068;2023-05-07T01:51:25;6.53;;;4.20;;
15595;SDS011;7898;48.658;9.068;2023-05-07T01:53:52;4.60;;;3.37;;
15595;SDS011;7898;48.658;9.068;2023-05-07T01:56:19;5.67;;;4.00;;
15595;SDS011;7898;48.658;9.068;2023-05-07T01:58:47;6.00;;;4.00;;
15595;SDS011;7898;48.658;9.068;2023-05-07T02:01:16;6.87;;;4.30;;
15595;SDS011;7898;48.658;9.068;2023-05-07T02:03:43;4.33;;;3.93;;
15595;SDS011;7898;48.658;9.068;2023-05-07T02:06:10;7.40;;;4.10;;
15595;SDS011;7898;48.658;9.068;2023-05-07T02:08:37;5.53;;;4.30;;
15595;SDS011;7898;48.658;9.068;2023-05-07T02:11:04;4.93;;;4.03;;
15595;SDS011;7898;48.658;9.068;2023-05-07T02:13:31;5.20;;;3.90;;
15595;SDS011;7898;48.658;9.068;2023-05-07T02:16:00;5.27;;;4.23;;
15595;SDS011;7898;48.658;9.068;2023-05-07T02:18:27;7.50;;;4.47;;
15595;SDS011;7898;48.658;9.068;2023-05-07T02:20:54;5.67;;;4.10;;
15595;SDS011;7898;48.658;9.068;2023-05-07T02:23:21;5.57;;;4.60;;
15595;SDS011;7898;48.658;9.068;2023-05-07T02:25:48;5.50;;;4.50;;
15595;SDS011;7898;48.658;9.068;2023-05-07T02:28:15;8.40;;;4.20;;
15595;SDS011;7898;48.658;9.068;2023-05-07T02:30:41;4.83;;;3.97;;
15595;SDS011;7898;48.658;9.068;2023-05-07T02:33:10;7.13;;;4.40;;
15595;SDS011;7898;48.658;9.068;2023-05-07T02:35:37;5.57;;;4.17;;
15595;SDS011;7898;48.658;9.068;2023-05-07T02:38:04;5.50;;;4.20;;
15595;SDS011;7898;48.658;9.068;2023-05-07T02:40:31;4.77;;;4.37;;
15595;SDS011;7898;48.658;9.068;2023-05-07T02:43:03;6.07;;;4.63;;
15595;SDS011;7898;48.658;9.068;2023-05-07T02:45:30;5.17;;;4.67;;
15595;SDS011;7898;48.658;9.068;2023-05-07T02:47:57;7.80;;;4.50;;
15595;SDS011;7898;48.658;9.068;2023-05-07T02:50:25;6.00;;;4.10;;
15595;SDS011;7898;48.658;9.068;2023-05-07T02:52:52;4.47;;;4.00;;
15595;SDS011;7898;48.658;9.068;2023-05-07T02:55:19;6.70;;;4.47;;
15595;SDS011;7898;48.658;9.068;2023-05-07T02:57:46;7.60;;;4.17;;
15595;SDS011;7898;48.658;9.068;2023-05-07T03:00:13;10.70;;;4.77;;
15595;SDS011;7898;48.658;9.068;2023-05-07T03:02:42;5.90;;;4.23;;
15595;SDS011;7898;48.658;9.068;2023-05-07T03:05:08;7.10;;;4.50;;
15595;SDS011;7898;48.658;9.068;2023-05-07T03:07:37;5.63;;;4.57;;
15595;SDS011;7898;48.658;9.068;2023-05-07T03:10:04;5.27;;;4.20;;
15595;SDS011;7898;48.658;9.068;2023-05-07T03:12:31;5.77;;;4.37;;
15595;SDS011;7898;48.658;9.068;2023-05-07T03:14:58;4.80;;;4.17;;
15595;SDS011;7898;48.658;9.068;2023-05-07T03:17:25;5.00;;;4.50;;
15595;SDS011;7898;48.658;9.068;2023-05-07T03:19:52;6.10;;;4.60;;
15595;SDS011;7898;48.658;9.068;2023-05-07T03:22:19;6.33;;;4.43;;
15595;SDS011;7898;48.658;9.068;2023-05-07T03:24:47;4.77;;;4.27;;
15595;SDS011;7898;48.658;9.068;2023-05-07T03:27:14;4.87;;;4.37;;
15595;SDS011;7898;48.658;9.068;2023-05-07T03:29:40;6.83;;;4.70;;
15595;SDS011;7898;48.658;9.068;2023-05-07T03:32:07;7.13;;;5.70;;
15595;SDS011;7898;48.658;9.068;2023-05-07T03:34:34;7.17;;;5.27;;
15595;SDS011;7898;48.658;9.068;2023-05-07T03:37:01;6.53;;;4.80;;
15595;SDS011;7898;48.658;9.068;2023-05-07T03:39:28;5.93;;;4.07;;
15595;SDS011;7898;48.658;9.068;2023-05-07T03:41:56;6.57;;;4.40;;
15595;SDS011;7898;48.658;9.068;2023-05-07T03:44:24;5.43;;;3.60;;
15595;SDS011;7898;48.658;9.068;2023-05-07T03:46:50;5.23;;;4.53;;
15595;SDS011;7898;48.658;9.068;2023-05-07T03:49:17;5.20;;;4.23;;
15595;SDS011;7898;48.658;9.068;2023-05-07T03:51:44;4.90;;;4.13;;
15595;SDS011;7898;48.658;9.068;2023-05-07T03:54:11;4.67;;;4.13;;
15595;SDS011;7898;48.658;9.068;2023-05-07T03:56:38;6.20;;;4.63;;
15595;SDS011;7898;48.658;9.068;2023-05-07T03:59:06;6.13;;;4.10;;
15595;SDS011;7898;48.658;9.068;2023-05-07T04:01:33;5.20;;;4.17;;
15595;SDS011;7898;48.658;9.068;2023-05-07T04:04:00;4.70;;;4.10;;
15595;SDS011;7898;48.658;9.068;2023-05-07T04:06:28;6.23;;;4.90;;
15595;SDS011;7898;48.658;9.068;2023-05-07T04:08:55;5.30;;;4.13;;
15595;SDS011;7898;48.658;9.068;2023-05-07T04:11:22;8.27;;;4.43;;
15595;SDS011;7898;48.658;9.068;2023-05-07T04:13:49;5.93;;;4.73;;
15595;SDS011;7898;48.658;9.068;2023-05-07T04:16:17;6.53;;;4.63;;
15595;SDS011;7898;48.658;9.068;2023-05-07T04:18:44;6.33;;;4.33;;
15595;SDS011;7898;48.658;9.068;2023-05-07T04:21:14;6.93;;;5.23;;
15595;SDS011;7898;48.658;9.068;2023-05-07T04:23:41;5.47;;;4.87;;
15595;SDS011;7898;48.658;9.068;2023-05-07T04:26:08;4.47;;;4.07;;
15595;SDS011;7898;48.658;9.068;2023-05-07T04:28:35;4.80;;;4.30;;
15595;SDS011;7898;48.658;9.068;2023-05-07T04:31:02;6.17;;;4.30;;
15595;SDS011;7898;48.658;9.068;2023-05-07T04:33:30;5.73;;;4.10;;
15595;SDS011;7898;48.658;9.068;2023-05-07T04:35:58;7.07;;;4.60;;
15595;SDS011;7898;48.658;9.068;2023-05-07T04:38:27;5.50;;;4.40;;
15595;SDS011;7898;48.658;9.068;2023-05-07T04:40:54;5.57;;;4.10;;
15595;SDS011;7898;48.658;9.068;2023-05-07T04:43:22;4.73;;;4.07;;
15595;SDS011;7898;48.658;9.068;2023-05-07T04:45:49;6.90;;;4.80;;
15595;SDS011;7898;48.658;9.068;2023-05-07T04:48:16;6.40;;;4.60;;
15595;SDS011;7898;48.658;9.068;2023-05-07T04:50:45;5.73;;;4.27;;
15595;SDS011;7898;48.658;9.068;2023-05-07T04:53:13;4.03;;;3.63;;
15595;SDS011;7898;48.658;9.068;2023-05-07T04:55:40;5.77;;;4.10;;
15595;SDS011;7898;48.658;9.068;2023-05-07T04:58:07;8.73;;;3.80;;
15595;SDS011;7898;48.658;9.068;2023-05-07T05:00:34;7.67;;;4.23;;
15595;SDS011;7898;48.658;9.068;2023-05-07T05:03:01;4.67;;;4.00;;
15595;SDS011;7898;48.658;9.068;2023-05-07T05:05:28;6.77;;;4.97;;
15595;SDS011;7898;48.658;9.068;2023-05-07T05:07:57;5.60;;;5.00;;
15595;SDS011;7898;48.658;9.068;2023-05-07T05:10:23;6.87;;;4.87;;
15595;SDS011;7898;48.658;9.068;2023-05-07T05:12:50;7.23;;;4.53;;
15595;SDS011;7898;48.658;9.068;2023-05-07T05:15:17;5.17;;;4.67;;
15595;SDS011;7898;48.658;9.068;2023-05-07T05:17:44;4.83;;;4.30;;
15595;SDS011;7898;48.658;9.068;2023-05-07T05:20:11;7.13;;;4.50;;
15595;SDS011;7898;48.658;9.068;2023-05-07T05:22:39;5.27;;;4.57;;
15595;SDS011;7898;48.658;9.068;2023-05-07T05:25:08;5.27;;;4.53;;
15595;SDS011;7898;48.658;9.068;2023-05-07T05:27:35;5.10;;;4.60;;
15595;SDS011;7898;48.658;9.068;2023-05-07T05:30:02;6.43;;;4.60;;
15595;SDS011;7898;48.658;9.068;2023-05-07T05:32:30;5.93;;;4.90;;
15595;SDS011;7898;48.658;9.068;2023-05-07T05:34:57;5.75;;;4.72;;
15595;SDS011;7898;48.658;9.068;2023-05-07T05:37:25;5.35;;;4.85;;
15595;SDS011;7898;48.658;9.068;2023-05-07T05:39:51;5.47;;;4.75;;
15595;SDS011;7898;48.658;9.068;2023-05-07T05:42:21;5.72;;;5.13;;
15595;SDS011;7898;48.658;9.068;2023-05-07T05:44:48;5.40;;;4.90;;
15595;SDS011;7898;48.658;9.068;2023-05-07T05:47:14;5.70;;;4.82;;
15595;SDS011;7898;48.658;9.068;2023-05-07T05:49:41;5.93;;;4.72;;
15595;SDS011;7898;48.658;9.068;2023-05-07T05:52:09;6.25;;;4.88;;
15595;SDS011;7898;48.658;9.068;2023-05-07T05:54:37;6.35;;;4.43;;
15595;SDS011;7898;48.658;9.068;2023-05-07T05:57:04;5.20;;;4.60;;
15595;SDS011;7898;48.658;9.068;2023-05-07T05:59:33;5.43;;;4.72;;
15595;SDS011;7898;48.658;9.068;2023-05-07T06:01:59;5.85;;;4.55;;
15595;SDS011;7898;48.658;9.068;2023-05-07T06:04:26;5.10;;;4.60;;
15595;SDS011;7898;48.658;9.068;2023-05-07T06:06:53;4.80;;;4.40;;
15595;SDS011;7898;48.658;9.068;2023-05-07T06:09:21;5.97;;;4.30;;
15595;SDS011;7898;48.658;9.068;2023-05-07T06:11:48;4.57;;;4.10;;
15595;SDS011;7898;48.658;9.068;2023-05-07T06:14:15;5.20;;;4.45;;
15595;SDS011;7898;48.658;9.068;2023-05-07T06:16:43;5.78;;;4.20;;
15595;SDS011;7898;48.658;9.068;2023-05-07T06:19:10;4.28;;;3.88;;
15595;SDS011;7898;48.658;9.068;2023-05-07T06:21:38;4.70;;;4.07;;
15595;SDS011;7898;48.658;9.068;2023-05-07T06:24:05;5.03;;;3.78;;
15595;SDS011;7898;48.658;9.068;2023-05-07T06:26:32;7.70;;;4.00;;
15595;SDS011;7898;48.658;9.068;2023-05-07T06:28:59;3.97;;;3.65;;
15595;SDS011;7898;48.658;9.068;2023-05-07T06:31:29;4.15;;;3.78;;
15595;SDS011;7898;48.658;9.068;2023-05-07T06:33:58;6.55;;;3.70;;
15595;SDS011;7898;48.658;9.068;2023-05-07T06:36:27;4.20;;;3.80;;
15595;SDS011;7898;48.658;9.068;2023-05-07T06:38:54;4.68;;;4.03;;
15595;SDS011;7898;48.658;9.068;2023-05-07T06:41:21;6.07;;;4.20;;
15595;SDS011;7898;48.658;9.068;2023-05-07T06:43:47;4.68;;;3.72;;
15595;SDS011;7898;48.658;9.068;2023-05-07T06:46:15;8.27;;;3.63;;
15595;SDS011;7898;48.658;9.068;2023-05-07T06:48:42;5.50;;;4.13;;
15595;SDS011;7898;48.658;9.068;2023-05-07T06:51:10;5.05;;;3.50;;
15595;SDS011;7898;48.658;9.068;2023-05-07T06:53:37;3.75;;;3.45;;
15595;SDS011;7898;48.658;9.068;2023-05-07T06:56:04;4.40;;;3.40;;
15595;SDS011;7898;48.658;9.068;2023-05-07T06:58:31;4.40;;;3.45;;
15595;SDS011;7898;48.658;9.068;2023-05-07T07:00:59;4.28;;;3.88;;
15595;SDS011;7898;48.658;9.068;2023-05-07T07:03:26;5.28;;;3.40;;
15595;SDS011;7898;48.658;9.068;2023-05-07T07:05:53;3.38;;;3.08;;
15595;SDS011;7898;48.658;9.068;2023-05-07T07:08:21;3.38;;;3.08;;
15595;SDS011;7898;48.658;9.068;2023-05-07T07:10:48;4.50;;;3.28;;
15595;SDS011;7898;48.658;9.068;2023-05-07T07:13:15;4.10;;;3.17;;
15595;SDS011;7898;48.658;9.068;2023-05-07T07:15:42;4.05;;;3.72;;
15595;SDS011;7898;48.658;9.068;2023-05-07T07:18:10;5.53;;;2.95;;
15595;SDS011;7898;48.658;9.068;2023-05-07T07:20:36;3.33;;;3.03;;
15595;SDS011;7898;48.658;9.068;2023-05-07T07:23:03;4.65;;;3.20;;
15595;SDS011;7898;48.658;9.068;2023-05-07T07:25:32;7.70;;;3.35;;
15595;SDS011;7898;48.658;9.068;2023-05-07T07:28:01;4.10;;;3.75;;
15595;SDS011;7898;48.658;9.068;2023-05-07T07:30:28;3.45;;;3.15;;
15595;SDS011;7898;48.658;9.068;2023-05-07T07:32:55;3.55;;;3.25;;
15595;SDS011;7898;48.658;9.068;2023-05-07T07:35:27;5.07;;;3.30;;
15595;SDS011;7898;48.658;9.068;2023-05-07T07:37:54;3.88;;;2.78;;
15595;SDS011;7898;48.658;9.068;2023-05-07T07:40:20;3.05;;;2.83;;
15595;SDS011;7898;48.658;9.068;2023-05-07T07:42:49;3.70;;;3.25;;
15595;SDS011;7898;48.658;9.068;2023-05-07T07:45:16;4.20;;;3.00;;
15595;SDS011;7898;48.658;9.068;2023-05-07T07:47:42;5.82;;;2.90;;
15595;SDS011;7898;48.658;9.068;2023-05-07T07:50:10;3.17;;;2.92;;
15595;SDS011;7898;48.658;9.068;2023-05-07T07:52:37;3.55;;;2.78;;
15595;SDS011;7898;48.658;9.068;2023-05-07T07:55:04;2.75;;;2.55;;
15595;SDS011;7898;48.658;9.068;2023-05-07T07:57:32;3.97;;;3.00;;
15595;SDS011;7898;48.658;9.068;2023-05-07T08:00:00;4.57;;;3.00;;
15595;SDS011;7898;48.658;9.068;2023-05-07T08:02:27;2.80;;;2.60;;
15595;SDS011;7898;48.658;9.068;2023-05-07T08:04:54;3.70;;;2.67;;
15595;SDS011;7898;48.658;9.068;2023-05-07T08:07:21;3.28;;;2.80;;
15595;SDS011;7898;48.658;9.068;2023-05-07T08:09:48;3.08;;;2.78;;
15595;SDS011;7898;48.658;9.068;2023-05-07T08:12:15;3.22;;;2.58;;
15595;SDS011;7898;48.658;9.068;2023-05-07T08:14:42;3.90;;;2.85;;
15595;SDS011;7898;48.658;9.068;2023-05-07T08:17:10;3.40;;;2.90;;
15595;SDS011;7898;48.658;9.068;2023-05-07T08:19:38;7.88;;;2.95;;
15595;SDS011;7898;48.658;9.068;2023-05-07T08:22:04;3.72;;;2.63;;
15595;SDS011;7898;48.658;9.068;2023-05-07T08:24:31;4.15;;;2.95;;
15595;SDS011;7898;48.658;9.068;2023-05-07T08:26:58;2.78;;;2.58;;
15595;SDS011;7898;48.658;9.068;2023-05-07T08:29:25;2.83;;;2.30;;
15595;SDS011;7898;48.658;9.068;2023-05-07T08:31:52;3.20;;;2.90;;
15595;SDS011;7898;48.658;9.068;2023-05-07T08:34:20;5.43;;;2.90;;
15595;SDS011;7898;48.658;9.068;2023-05-07T08:36:47;3.72;;;2.75;;
15595;SDS011;7898;48.658;9.068;2023-05-07T08:39:15;3.30;;;2.90;;
15595;SDS011;7898;48.658;9.068;2023-05-07T08:41:43;2.78;;;2.58;;
15595;SDS011;7898;48.658;9.068;2023-05-07T08:44:11;2.85;;;2.60;;
15595;SDS011;7898;48.658;9.068;2023-05-07T08:46:39;2.70;;;2.50;;
15595;SDS011;7898;48.658;9.068;2023-05-07T08:49:07;2.60;;;2.40;;
15595;SDS011;7898;48.658;9.068;2023-05-07T08:51:35;3.70;;;2.70;;
15595;SDS011;7898;48.658;9.068;2023-05-07T08:54:03;4.25;;;2.42;;
15595;SDS011;7898;48.658;9.068;2023-05-07T08:56:30;3.55;;;2.90;;
15595;SDS011;7898;48.658;9.068;2023-05-07T08:58:57;2.58;;;2.38;;
15595;SDS011;7898;48.658;9.068;2023-05-07T09:01:24;2.65;;;2.45;;
15595;SDS011;7898;48.658;9.068;2023-05-07T09:03:52;2.47;;;2.28;;
15595;SDS011;7898;48.658;9.068;2023-05-07T09:06:20;2.70;;;2.50;;
15595;SDS011;7898;48.658;9.068;2023-05-07T09:08:51;2.30;;;2.10;;
15595;SDS011;7898;48.658;9.068;2023-05-07T09:11:22;3.42;;;2.60;;
15595;SDS011;7898;48.658;9.068;2023-05-07T09:13:49;3.13;;;2.40;;
15595;SDS011;7898;48.658;9.068;2023-05-07T09:16:20;3.10;;;2.80;;
15595;SDS011;7898;48.658;9.068;2023-05-07T09:18:48;3.28;;;2.75;;
15595;SDS011;7898;48.658;9.068;2023-05-07T09:21:18;3.38;;;3.08;;
15595;SDS011;7898;48.658;9.068;2023-05-07T09:23:48;2.60;;;2.40;;
15595;SDS011;7898;48.658;9.068;2023-05-07T09:26:17;4.68;;;2.72;;
15595;SDS011;7898;48.658;9.068;2023-05-07T09:28:45;5.22;;;2.70;;
15595;SDS011;7898;48.658;9.068;2023-05-07T09:31:12;5.05;;;3.83;;
15595;SDS011;7898;48.658;9.068;2023-05-07T09:33:39;3.10;;;2.80;;
15595;SDS011;7898;48.658;9.068;2023-05-07T09:36:07;3.25;;;2.80;;
15595;SDS011;7898;48.658;9.068;2023-05-07T09:38:36;5.03;;;3.22;;
15595;SDS011;7898;48.658;9.068;2023-05-07T09:41:06;3.58;;;2.67;;
15595;SDS011;7898;48.658;9.068;2023-05-07T09:43:36;4.30;;;2.83;;
15595;SDS011;7898;48.658;9.068;2023-05-07T09:46:06;3.33;;;3.03;;
15595;SDS011;7898;48.658;9.068;2023-05-07T09:48:35;2.85;;;2.60;;
15595;SDS011;7898;48.658;9.068;2023-05-07T09:51:06;3.40;;;2.63;;
15595;SDS011;7898;48.658;9.068;2023-05-07T09:53:41;4.55;;;3.20;;
15595;SDS011;7898;48.658;9.068;2023-05-07T09:56:10;3.08;;;2.63;;
15595;SDS011;7898;48.658;9.068;2023-05-07T09:58:41;3.50;;;3.08;;
15595;SDS011;7898;48.658;9.068;2023-05-07T10:01:10;3.20;;;2.90;;
15595;SDS011;7898;48.658;9.068;2023-05-07T10:03:38;3.67;;;2.97;;
15595;SDS011;7898;48.658;9.068;2023-05-07T10:06:06;2.75;;;2.50;;
15595;SDS011;7898;48.658;9.068;2023-05-07T10:08:35;4.78;;;3.00;;
15595;SDS011;7898;48.658;9.068;2023-05-07T10:11:02;3.50;;;2.63;;
15595;SDS011;7898;48.658;9.068;2023-05-07T10:13:30;4.72;;;2.72;;
15595;SDS011;7898;48.658;9.068;2023-05-07T10:16:00;4.32;;;2.97;;
15595;SDS011;7898;48.658;9.068;2023-05-07T10:18:27;4.18;;;2.75;;
15595;SDS011;7898;48.658;9.068;2023-05-07T10:20:59;3.45;;;2.72;;
15595;SDS011;7898;48.658;9.068;2023-05-07T10:23:30;2.75;;;2.55;;
15595;SDS011;7898;48.658;9.068;2023-05-07T10:25:58;3.80;;;2.90;;
15595;SDS011;7898;48.658;9.068;2023-05-07T10:28:27;6.50;;;4.15;;
15595;SDS011;7898;48.658;9.068;2023-05-07T10:31:01;4.07;;;3.10;;
15595;SDS011;7898;48.658;9.068;2023-05-07T10:33:40;4.47;;;3.13;;
15595;SDS011;7898;48.658;9.068;2023-05-07T10:36:09;4.25;;;3.20;;
15595;SDS011;7898;48.658;9.068;2023-05-07T10:38:37;6.03;;;3.22;;
15595;SDS011;7898;48.658;9.068;2023-05-07T10:41:05;3.08;;;2.88;;
15595;SDS011;7898;48.658;9.068;2023-05-07T10:43:42;6.80;;;2.83;;
15595;SDS011;7898;48.658;9.068;2023-05-07T10:46:13;4.20;;;2.85;;
15595;SDS011;7898;48.658;9.068;2023-05-07T10:51:37;3.20;;;2.72;;
15595;SDS011;7898;48.658;9.068;2023-05-07T10:56:50;4.22;;;2.92;;
15595;SDS011;7898;48.658;9.068;2023-05-07T10:59:33;4.03;;;2.80;;
15595;SDS011;7898;48.658;9.068;2023-05-07T11:02:09;2.80;;;2.60;;
15595;SDS011;7898;48.658;9.068;2023-05-07T11:04:39;3.33;;;2.47;;
15595;SDS011;7898;48.658;9.068;2023-05-07T11:09:58;3.03;;;2.72;;
15595;SDS011;7898;48.658;9.068;2023-05-07T11:15:36;2.80;;;2.60;;
15595;SDS011;7898;48.658;9.068;2023-05-07T11:18:06;4.45;;;2.78;;
15595;SDS011;7898;48.658;9.068;2023-05-07T11:20:46;2.55;;;2.35;;
15595;SDS011;7898;48.658;9.068;2023-05-07T11:26:25;2.55;;;2.35;;
15595;SDS011;7898;48.658;9.068;2023-05-07T11:28:53;3.08;;;2.35;;
15595;SDS011;7898;48.658;9.068;2023-05-07T11:31:21;2.70;;;2.50;;
15595;SDS011;7898;48.658;9.068;2023-05-07T11:33:55;3.25;;;2.72;;
15595;SDS011;7898;48.658;9.068;2023-05-07T11:36:23;3.80;;;2.17;;
15595;SDS011;7898;48.658;9.068;2023-05-07T11:38:51;2.63;;;2.33;;
15595;SDS011;7898;48.658;9.068;2023-05-07T11:41:18;3.53;;;2.83;;
15595;SDS011;7898;48.658;9.068;2023-05-07T11:43:55;4.65;;;2.42;;
15595;SDS011;7898;48.658;9.068;2023-05-07T11:46:24;2.83;;;2.53;;
15595;SDS011;7898;48.658;9.068;2023-05-07T11:48:55;2.53;;;2.33;;
15595;SDS011;7898;48.658;9.068;2023-05-07T11:51:23;2.72;;;2.25;;
15595;SDS011;7898;48.658;9.068;2023-05-07T11:53:52;3.03;;;2.72;;
15595;SDS011;7898;48.658;9.068;2023-05-07T11:56:19;2.53;;;2.33;;
15595;SDS011;7898;48.658;9.068;2023-05-07T11:58:47;2.58;;;2.38;;
15595;SDS011;7898;48.658;9.068;2023-05-07T12:01:14;3.00;;;2.70;;
15595;SDS011;7898;48.658;9.068;2023-05-07T12:03:43;3.63;;;2.60;;
15595;SDS011;7898;48.658;9.068;2023-05-07T12:06:13;3.30;;;2.83;;
15595;SDS011;7898;48.658;9.068;2023-05-07T12:08:41;4.18;;;3.10;;
15595;SDS011;7898;48.658;9.068;2023-05-07T12:11:09;3.08;;;2.40;;
15595;SDS011;7898;48.658;9.068;2023-05-07T12:13:40;3.47;;;2.40;;
15595;SDS011;7898;48.658;9.068;2023-05-07T12:16:07;5.60;;;2.40;;
15595;SDS011;7898;48.658;9.068;2023-05-07T12:18:35;3.95;;;1.95;;
15595;SDS011;7898;48.658;9.068;2023-05-07T12:21:09;3.78;;;1.85;;
15595;SDS011;7898;48.658;9.068;2023-05-07T12:23:38;3.50;;;1.90;;
15595;SDS011;7898;48.658;9.068;2023-05-07T12:26:06;8.13;;;3.17;;
15595;SDS011;7898;48.658;9.068;2023-05-07T12:28:36;5.22;;;2.67;;
15595;SDS011;7898;48.658;9.068;2023-05-07T12:31:04;8.32;;;3.78;;
15595;SDS011;7898;48.658;9.068;2023-05-07T12:33:32;8.10;;;3.88;;
15595;SDS011;7898;48.658;9.068;2023-05-07T12:36:02;9.70;;;5.53;;
15595;SDS011;7898;48.658;9.068;2023-05-07T12:38:38;8.20;;;4.15;;
15595;SDS011;7898;48.658;9.068;2023-05-07T12:41:06;11.57;;;4.90;;
15595;SDS011;7898;48.658;9.068;2023-05-07T12:43:34;20.52;;;12.32;;
15595;SDS011;7898;48.658;9.068;2023-05-07T12:46:02;25.27;;;15.63;;
15595;SDS011;7898;48.658;9.068;2023-05-07T12:48:30;35.65;;;25.33;;
15595;SDS011;7898;48.658;9.068;2023-05-07T12:50:58;21.08;;;15.85;;
15595;SDS011;7898;48.658;9.068;2023-05-07T12:53:27;10.00;;;7.75;;
15595;SDS011;7898;48.658;9.068;2023-05-07T12:55:56;8.68;;;4.18;;
15595;SDS011;7898;48.658;9.068;2023-05-07T12:58:25;9.02;;;2.22;;
15595;SDS011;7898;48.658;9.068;2023-05-07T13:00:53;4.47;;;2.17;;
15595;SDS011;7898;48.658;9.068;2023-05-07T13:03:23;5.25;;;2.65;;
15595;SDS011;7898;48.658;9.068;2023-05-07T13:05:51;6.90;;;4.40;;
15595;SDS011;7898;48.658;9.068;2023-05-07T13:08:29;7.97;;;4.45;;
15595;SDS011;7898;48.658;9.068;2023-05-07T13:10:59;7.13;;;4.00;;
15595;SDS011;7898;48.658;9.068;2023-05-07T13:13:28;6.65;;;4.72;;
15595;SDS011;7898;48.658;9.068;2023-05-07T13:15:56;13.38;;;11.85;;
15595;SDS011;7898;48.658;9.068;2023-05-07T13:18:24;7.88;;;6.53;;
15595;SDS011;7898;48.658;9.068;2023-05-07T13:20:51;8.15;;;5.53;;
15595;SDS011;7898;48.658;9.068;2023-05-07T13:23:18;5.63;;;4.50;;
15595;SDS011;7898;48.658;9.068;2023-05-07T13:25:45;7.85;;;7.03;;
15595;SDS011;7898;48.658;9.068;2023-05-07T13:28:14;6.18;;;3.90;;
15595;SDS011;7898;48.658;9.068;2023-05-07T13:30:41;5.30;;;3.70;;
15595;SDS011;7898;48.658;9.068;2023-05-07T13:33:07;4.13;;;3.47;;
15595;SDS011;7898;48.658;9.068;2023-05-07T13:35:35;7.18;;;3.80;;
15595;SDS011;7898;48.658;9.068;2023-05-07T13:38:02;6.38;;;3.65;;
15595;SDS011;7898;48.658;9.068;2023-05-07T13:40:29;5.00;;;3.30;;
15595;SDS011;7898;48.658;9.068;2023-05-07T13:42:56;4.93;;;3.47;;
15595;SDS011;7898;48.658;9.068;2023-05-07T13:45:27;4.63;;;3.45;;
15595;SDS011;7898;48.658;9.068;2023-05-07T13:47:54;8.02;;;3.70;;
15595;SDS011;7898;48.658;9.068;2023-05-07T13:50:22;6.47;;;3.97;;
15595;SDS011;7898;48.658;9.068;2023-05-07T13:52:49;6.47;;;4.30;;
15595;SDS011;7898;48.658;9.068;2023-05-07T13:55:16;8.45;;;4.43;;
15595;SDS011;7898;48.658;9.068;2023-05-07T13:57:43;10.95;;;5.90;;
15595;SDS011;7898;48.658;9.068;2023-05-07T14:00:11;10.13;;;7.03;;
15595;SDS011;7898;48.658;9.068;2023-05-07T14:02:40;6.50;;;5.30;;
15595;SDS011;7898;48.658;9.068;2023-05-07T14:05:07;8.07;;;6.05;;
15595;SDS011;7898;48.658;9.068;2023-05-07T14:07:35;6.57;;;5.03;;
15595;SDS011;7898;48.658;9.068;2023-05-07T14:10:02;11.00;;;5.32;;
15595;SDS011;7898;48.658;9.068;2023-05-07T14:12:29;6.10;;;4.47;;
15595;SDS011;7898;48.658;9.068;2023-05-07T14:14:56;6.40;;;3.67;;
15595;SDS011;7898;48.658;9.068;2023-05-07T14:17:23;9.15;;;4.30;;
15595;SDS011;7898;48.658;9.068;2023-05-07T14:19:53;6.90;;;4.55;;
15595;SDS011;7898;48.658;9.068;2023-05-07T14:22:20;6.90;;;5.15;;
15595;SDS011;7898;48.658;9.068;2023-05-07T14:24:48;16.75;;;15.05;;
15595;SDS011;7898;48.658;9.068;2023-05-07T14:27:16;8.35;;;6.82;;
15595;SDS011;7898;48.658;9.068;2023-05-07T14:29:43;7.05;;;5.97;;
15595;SDS011;7898;48.658;9.068;2023-05-07T14:32:10;13.15;;;6.15;;
15595;SDS011;7898;48.658;9.068;2023-05-07T14:34:38;9.10;;;6.00;;
15595;SDS011;7898;48.658;9.068;2023-05-07T14:37:06;5.00;;;4.47;;
15595;SDS011;7898;48.658;9.068;2023-05-07T14:39:33;8.55;;;4.10;;
15595;SDS011;7898;48.658;9.068;2023-05-07T14:42:00;7.80;;;4.53;;
15595;SDS011;7898;48.658;9.068;2023-05-07T14:44:27;11.23;;;5.10;;
15595;SDS011;7898;48.658;9.068;2023-05-07T14:46:54;8.05;;;7.18;;
15595;SDS011;7898;48.658;9.068;2023-05-07T14:49:21;4.80;;;4.30;;
15595;SDS011;7898;48.658;9.068;2023-05-07T14:51:48;6.00;;;4.18;;
15595;SDS011;7898;48.658;9.068;2023-05-07T14:54:17;6.63;;;4.18;;
15595;SDS011;7898;48.658;9.068;2023-05-07T14:56:44;6.40;;;4.55;;
15595;SDS011;7898;48.658;9.068;2023-05-07T14:59:11;5.90;;;4.85;;
15595;SDS011;7898;48.658;9.068;2023-05-07T15:01:38;6.32;;;4.45;;
15595;SDS011;7898;48.658;9.068;2023-05-07T15:04:10;5.72;;;4.40;;
15595;SDS011;7898;48.658;9.068;2023-05-07T15:06:37;9.90;;;4.97;;
15595;SDS011;7898;48.658;9.068;2023-05-07T15:09:04;9.13;;;5.82;;
15595;SDS011;7898;48.658;9.068;2023-05-07T15:11:32;5.75;;;4.65;;
15595;SDS011;7898;48.658;9.068;2023-05-07T15:13:59;13.10;;;5.00;;
15595;SDS011;7898;48.658;9.068;2023-05-07T15:16:26;5.40;;;4.05;;
15595;SDS011;7898;48.658;9.068;2023-05-07T15:18:53;4.18;;;3.60;;